Accueil
METAR-TAF:

METAR-TAF

Aéroports :

Oceanside Municipal Airport

Oceanside, Californie, États-Unis

latitude: 33-13-05N, longitude: 117-21-05W, altitude: 9 m

Observation

Le bulletin a été fait il y a 1 heure et 9 minutes, à 23:52 UTC
Vent 7 kt de ouest/nord-ouest
Température 17°C
Humidité 72%
Pression 1021 hPa
Visibilité: 9.7 km
Ciel clair
brume sèche

METAR: KOKB 272352Z AUTO 29007KT 6SM HZ CLR 17/12 A3016 RMK AO2 SLP212 T01670117 10183 20150 55004

Heure: 17:01 (01:01 UTC)


TAF: absent

Observations et prévisions météorologiques de plus de 4000 aéroports (messages METAR et TAF).

Les stations disponibles sont représentées par des disques jaunes et rouges sur la carte.

Passer la souris dessus pour voir le nom de la station.

Cliquer dessus pour voir les observations et prévisions météorologiques.

Pour changer de carte: cliquez sur les boutons verts avec une croix noire pour zoomer, sur le bouton vert avec un tiret pour effectuer un zoom arrière, ou sur les flèches vertes pour les cartes adjacentes.


METAR-TAF: